PGA weather

Public forecast

Using degrees Fahrenheit for public forecast. Weather courtesy of forecast.io.

Current aviation weather report (METAR) for Page Municipal Airport

Retrieved 2020/08/15 04:53 UTC (12 minutes ago):

KPGA 150453Z AUTO 25004KT 10SM CLR 34/01 A3004 RMK AO2 SLP090 T03390006 TSNO

Aviation forecast (TAF) for Page Municipal Airport

Retrieved 2020-08-15 00:24 UTC (5 hours ago):

TAF KPGA 142323Z 1500/1524 28010KT P6SM FEW140 FM150200 VRB05KT P6SM SKC